Time;durP1;ratioP1;P1;durP2;ratioP2;P2;SDS_P1;SDS_P2;PMS_P1;PMS_P2;Temp;Humidity;BMP_temperature;BMP_pressure;BME280_temperature;BME280_humidity;BME280_pressure;Samples;Min_cycle;Max_cycle;Signal;HPM_P1;HPM_P2
2022/07/21 00:00:20;;;;;;;12.88;7.00;;;21.50;99.90;;;;;;4995743;28;20256;-79
2022/07/21 00:02:48;;;;;;;13.63;8.02;;;21.50;99.90;;;;;;4995199;28;20219;-78
2022/07/21 00:05:15;;;;;;;8.80;6.53;;;21.50;99.90;;;;;;5012463;28;20303;-80
2022/07/21 00:07:41;;;;;;;11.73;6.82;;;21.50;99.90;;;;;;5014303;28;20778;-80
2022/07/21 00:10:10;;;;;;;13.90;6.95;;;21.40;99.90;;;;;;5045797;23;20241;-79
2022/07/21 00:12:37;;;;;;;10.60;6.38;;;21.50;99.90;;;;;;5035135;28;20202;-78
2022/07/21 00:15:07;;;;;;;15.70;8.27;;;21.50;99.90;;;;;;5033834;28;20652;-78
2022/07/21 00:17:34;;;;;;;12.07;7.00;;;21.50;99.90;;;;;;5032969;28;20211;-79
2022/07/21 00:20:01;;;;;;;14.73;8.27;;;21.50;99.90;;;;;;5034384;28;20206;-79
2022/07/21 00:22:28;;;;;;;9.88;6.93;;;21.50;99.90;;;;;;5021134;28;20201;-77
2022/07/21 00:24:55;;;;;;;14.75;8.90;;;21.50;99.90;;;;;;5034086;28;20206;-78
2022/07/21 00:27:22;;;;;;;12.38;8.10;;;21.40;99.90;;;;;;5034590;28;20229;-76
2022/07/21 00:29:49;;;;;;;14.85;8.95;;;21.40;99.90;;;;;;5032823;28;20225;-77
2022/07/21 00:32:17;;;;;;;13.73;8.85;;;21.40;99.90;;;;;;5034221;28;20191;-77
2022/07/21 00:34:44;;;;;;;10.48;7.13;;;21.40;99.90;;;;;;5034003;28;20198;-78
2022/07/21 00:37:11;;;;;;;12.43;8.32;;;21.40;99.90;;;;;;5032905;28;20210;-78
2022/07/21 00:39:38;;;;;;;17.98;10.35;;;21.40;99.90;;;;;;5033824;28;20214;-76
2022/07/21 00:42:06;;;;;;;12.32;9.95;;;21.40;99.90;;;;;;5032923;28;20309;-77
2022/07/21 00:44:32;;;;;;;16.58;10.77;;;21.40;99.90;;;;;;5033199;28;20209;-76
2022/07/21 00:47:00;;;;;;;13.02;10.55;;;21.40;99.90;;;;;;5033906;28;20206;-77
2022/07/21 00:49:28;;;;;;;11.75;9.25;;;21.40;99.90;;;;;;5032025;28;20199;-77
2022/07/21 00:51:55;;;;;;;18.50;12.20;;;21.30;99.90;;;;;;5033208;28;20352;-77
2022/07/21 00:54:22;;;;;;;17.30;11.25;;;21.30;99.90;;;;;;5034003;28;20195;-78
2022/07/21 00:56:49;;;;;;;16.42;10.73;;;21.30;99.90;;;;;;5033471;28;20202;-78
2022/07/21 00:59:16;;;;;;;14.18;9.40;;;21.30;99.90;;;;;;5032803;28;20238;-78
2022/07/21 01:01:43;;;;;;;19.00;11.23;;;21.20;99.90;;;;;;5032394;28;20205;-77
2022/07/21 01:04:10;;;;;;;16.70;11.00;;;21.20;99.90;;;;;;5029260;28;20202;-78
2022/07/21 01:06:38;;;;;;;15.85;10.48;;;21.20;99.90;;;;;;5032957;28;20278;-77
2022/07/21 01:09:05;;;;;;;15.13;11.05;;;21.20;99.90;;;;;;5032358;28;20517;-79
2022/07/21 01:11:33;;;;;;;17.50;12.20;;;21.20;99.90;;;;;;5033433;28;20321;-77
2022/07/21 01:14:00;;;;;;;17.70;12.50;;;21.20;99.90;;;;;;5031625;28;20209;-77
2022/07/21 01:16:27;;;;;;;19.00;12.80;;;21.20;99.90;;;;;;5033303;28;20241;-77
2022/07/21 01:18:55;;;;;;;17.80;13.75;;;21.20;99.90;;;;;;5032710;28;20234;-77
2022/07/21 01:21:32;;;;;;;17.77;11.23;;;21.20;99.90;;;;;;5032526;28;20221;-78
2022/07/21 01:24:01;;;;;;;17.73;12.63;;;21.10;99.90;;;;;;5033277;28;20205;-77
2022/07/21 01:26:28;;;;;;;17.98;13.48;;;21.20;99.90;;;;;;5032816;28;20204;-78
2022/07/21 01:28:55;;;;;;;17.73;14.50;;;21.20;99.90;;;;;;5032384;28;20214;-78
2022/07/21 01:31:22;;;;;;;16.63;14.65;;;21.20;99.90;;;;;;5032252;28;20207;-79
2022/07/21 01:33:50;;;;;;;18.42;12.13;;;21.10;99.90;;;;;;5032277;28;20285;-77
2022/07/21 01:36:17;;;;;;;15.27;11.38;;;21.10;99.90;;;;;;5033385;28;20248;-76
2022/07/21 01:41:33;;;;;;;20.60;15.20;;;21.10;99.90;;;;;;5032347;28;20557;-78
2022/07/21 01:44:02;;;;;;;17.85;14.32;;;21.10;99.90;;;;;;5032079;28;20203;-76
2022/07/21 01:46:29;;;;;;;20.38;15.27;;;21.00;99.90;;;;;;5031405;28;20237;-76
2022/07/21 01:48:56;;;;;;;17.35;15.30;;;21.00;99.90;;;;;;5032024;28;20620;-76
2022/07/21 01:51:23;;;;;;;22.40;17.77;;;21.00;99.90;;;;;;5033262;28;20199;-77
2022/07/21 01:53:52;;;;;;;19.88;16.63;;;21.00;99.90;;;;;;5032898;28;20198;-76
2022/07/21 01:56:21;;;;;;;20.08;17.98;;;21.00;99.90;;;;;;5030792;28;20206;-77
2022/07/21 01:58:49;;;;;;;23.33;19.13;;;21.00;99.90;;;;;;5032521;28;20222;-78
2022/07/21 02:01:16;;;;;;;22.08;19.75;;;20.90;99.90;;;;;;5031909;28;20201;-77
2022/07/21 02:03:43;;;;;;;22.27;19.60;;;20.90;99.90;;;;;;5031695;28;20360;-76
2022/07/21 02:06:11;;;;;;;21.45;19.17;;;20.90;99.90;;;;;;5031635;28;20198;-78
2022/07/21 02:08:38;;;;;;;23.88;21.48;;;20.90;99.90;;;;;;5031396;28;20202;-78
2022/07/21 02:11:07;;;;;;;26.63;23.83;;;20.90;99.90;;;;;;5032159;28;20239;-78
2022/07/21 02:13:34;;;;;;;23.23;20.73;;;20.80;99.90;;;;;;5031265;28;20523;-77
2022/07/21 02:16:01;;;;;;;23.92;19.65;;;20.80;99.90;;;;;;5032008;28;20481;-76
2022/07/21 02:18:28;;;;;;;21.65;19.35;;;20.80;99.90;;;;;;5032377;28;20233;-77
2022/07/21 02:20:55;;;;;;;22.42;20.13;;;20.80;99.90;;;;;;5031254;28;20209;-77
2022/07/21 02:23:22;;;;;;;20.35;18.35;;;20.70;99.90;;;;;;5031567;28;20186;-77
2022/07/21 02:25:49;;;;;;;21.08;18.88;;;20.80;99.90;;;;;;5031944;28;20710;-77
2022/07/21 02:28:18;;;;;;;21.92;19.63;;;20.70;99.90;;;;;;5030838;28;20734;-77
2022/07/21 02:30:45;;;;;;;20.48;18.38;;;20.80;99.90;;;;;;5031844;28;20262;-77
2022/07/21 02:33:12;;;;;;;19.02;17.10;;;20.80;99.90;;;;;;5031566;28;20202;-77
2022/07/21 02:35:39;;;;;;;23.70;21.30;;;20.70;99.90;;;;;;5032224;28;20736;-78
2022/07/21 02:38:07;;;;;;;26.42;23.45;;;20.70;99.90;;;;;;5031048;28;20298;-79
2022/07/21 02:40:34;;;;;;;19.73;17.88;;;20.70;99.90;;;;;;5031494;28;20199;-78
2022/07/21 02:43:01;;;;;;;22.10;19.33;;;20.70;99.90;;;;;;5032043;28;20276;-78
2022/07/21 02:45:29;;;;;;;19.35;17.35;;;20.70;99.90;;;;;;5030581;28;20475;-75
2022/07/21 02:47:58;;;;;;;24.25;21.65;;;20.70;99.90;;;;;;5030790;28;20313;-77
2022/07/21 02:50:28;;;;;;;23.85;21.23;;;20.70;99.90;;;;;;5031513;28;20662;-79
2022/07/21 02:52:56;;;;;;;23.23;20.73;;;20.70;99.90;;;;;;5032184;28;20217;-80
2022/07/21 02:55:24;;;;;;;19.88;17.80;;;20.60;99.90;;;;;;5031244;28;20198;-77
2022/07/21 02:57:51;;;;;;;20.52;18.50;;;20.60;99.90;;;;;;5030551;28;20193;-79
2022/07/21 03:00:18;;;;;;;20.23;18.08;;;20.60;99.90;;;;;;5032063;28;20230;-78
2022/07/21 03:02:46;;;;;;;22.15;20.10;;;20.60;99.90;;;;;;5031831;28;20195;-77
2022/07/21 03:05:13;;;;;;;24.60;22.00;;;20.60;99.90;;;;;;5030252;28;20202;-78
2022/07/21 03:07:39;;;;;;;18.73;16.92;;;20.60;99.90;;;;;;5032380;28;20210;-80
2022/07/21 03:10:07;;;;;;;20.75;18.73;;;20.60;99.90;;;;;;5035668;28;20234;-80
2022/07/21 03:12:34;;;;;;;19.50;17.63;;;20.50;99.90;;;;;;5034394;28;20790;-78
2022/07/21 03:15:01;;;;;;;23.38;20.92;;;20.50;99.90;;;;;;5015883;28;20197;-79
2022/07/21 03:17:28;;;;;;;26.73;23.92;;;20.50;99.90;;;;;;5016033;28;20206;-76
2022/07/21 03:19:56;;;;;;;21.88;19.88;;;20.50;99.90;;;;;;5014965;28;20215;-77
2022/07/21 03:22:23;;;;;;;27.67;24.88;;;20.50;99.90;;;;;;5024240;28;20209;-80
2022/07/21 03:24:50;;;;;;;27.52;24.63;;;20.50;99.90;;;;;;5035450;28;20628;-78
2022/07/21 03:27:17;;;;;;;26.30;23.55;;;20.40;99.90;;;;;;5035176;28;20202;-78
2022/07/21 03:29:44;;;;;;;25.15;22.65;;;20.40;99.90;;;;;;5035234;28;20202;-78
2022/07/21 03:32:11;;;;;;;25.70;23.05;;;20.40;99.90;;;;;;5035769;28;20199;-78
2022/07/21 03:34:38;;;;;;;21.15;18.95;;;20.40;99.90;;;;;;5035027;28;20209;-78
2022/07/21 03:37:06;;;;;;;21.13;18.98;;;20.40;99.90;;;;;;5035261;28;20202;-79
2022/07/21 03:39:33;;;;;;;22.10;19.90;;;20.40;99.90;;;;;;5034958;28;20230;-80
2022/07/21 03:42:00;;;;;;;19.55;17.70;;;20.40;99.90;;;;;;5036164;28;20222;-81
2022/07/21 03:44:27;;;;;;;24.45;22.00;;;20.40;99.90;;;;;;5035229;28;20233;-82
2022/07/21 03:46:54;;;;;;;21.25;19.13;;;20.40;99.90;;;;;;5035172;28;20191;-81
2022/07/21 03:49:22;;;;;;;20.30;18.23;;;20.40;99.90;;;;;;5034937;28;20782;-80
2022/07/21 03:51:49;;;;;;;20.63;18.65;;;20.40;99.90;;;;;;5035302;28;20202;-79
2022/07/21 03:54:18;;;;;;;23.45;21.05;;;20.40;99.90;;;;;;5034288;28;20282;-77
2022/07/21 03:56:44;;;;;;;29.02;26.33;;;20.40;99.90;;;;;;5034448;28;20404;-81
2022/07/21 03:59:11;;;;;;;24.83;22.35;;;20.40;99.90;;;;;;5035110;28;20619;-78
2022/07/21 04:01:38;;;;;;;25.70;23.10;;;20.40;99.90;;;;;;5033330;28;20971;-80
2022/07/21 04:04:05;;;;;;;29.88;26.65;;;20.40;99.90;;;;;;5035421;28;20195;-79
2022/07/21 04:06:32;;;;;;;24.02;21.33;;;20.40;99.90;;;;;;5034748;28;20194;-78
2022/07/21 04:08:59;;;;;;;23.42;21.02;;;20.40;99.90;;;;;;5034519;28;20201;-79
2022/07/21 04:11:27;;;;;;;25.83;23.25;;;20.40;99.90;;;;;;5034916;28;20230;-80
2022/07/21 04:13:54;;;;;;;25.75;23.02;;;20.40;99.90;;;;;;5033985;28;20203;-80
2022/07/21 04:16:21;;;;;;;25.58;22.90;;;20.40;99.90;;;;;;5034589;28;20205;-81
2022/07/21 04:18:47;;;;;;;29.00;25.85;;;20.40;99.90;;;;;;5033443;28;20826;-79
2022/07/21 04:21:14;;;;;;;25.95;23.30;;;20.40;99.90;;;;;;5035031;28;20199;-81
2022/07/21 04:23:41;;;;;;;31.38;28.08;;;20.40;99.90;;;;;;5034644;28;20209;-78
2022/07/21 04:26:08;;;;;;;25.10;22.52;;;20.30;99.90;;;;;;5033602;28;20203;-80
2022/07/21 04:28:36;;;;;;;26.48;23.75;;;20.30;99.90;;;;;;5034427;28;20195;-79
2022/07/21 04:31:03;;;;;;;27.00;24.20;;;20.30;99.90;;;;;;5034006;28;20197;-76
2022/07/21 04:33:30;;;;;;;29.90;26.85;;;20.30;99.90;;;;;;5034467;28;20207;-78
2022/07/21 04:35:57;;;;;;;25.80;23.10;;;20.30;99.90;;;;;;5034109;28;20513;-77
2022/07/21 04:38:23;;;;;;;26.73;24.10;;;20.30;99.90;;;;;;5033255;28;20210;-74
2022/07/21 04:40:50;;;;;;;35.13;31.27;;;20.30;99.90;;;;;;5034344;28;20228;-75
2022/07/21 04:43:17;;;;;;;33.20;29.75;;;20.30;99.90;;;;;;5033933;28;20317;-76
2022/07/21 04:45:45;;;;;;;33.08;29.63;;;20.30;99.90;;;;;;5034195;28;20203;-77
2022/07/21 04:48:12;;;;;;;28.60;25.60;;;20.30;99.90;;;;;;5034082;28;20214;-80
2022/07/21 04:50:39;;;;;;;31.38;28.10;;;20.30;99.90;;;;;;5033482;28;20583;-78
2022/07/21 04:53:06;;;;;;;30.73;27.23;;;20.30;99.90;;;;;;5033686;28;20210;-77
2022/07/21 04:55:32;;;;;;;28.88;24.80;;;20.20;99.90;;;;;;5032796;28;20598;-76
2022/07/21 04:57:59;;;;;;;28.77;25.83;;;20.30;99.90;;;;;;5033156;28;20610;-81
2022/07/21 05:00:26;;;;;;;32.70;28.77;;;20.30;99.90;;;;;;5034490;28;20222;-82
2022/07/21 05:02:55;;;;;;;31.55;28.25;;;20.30;99.90;;;;;;5033932;28;20213;-83
2022/07/21 05:05:23;;;;;;;32.78;28.65;;;20.30;99.90;;;;;;5033215;28;20203;-82
2022/07/21 05:07:50;;;;;;;33.45;29.35;;;20.30;99.90;;;;;;5033618;28;20195;-80
2022/07/21 05:10:17;;;;;;;33.40;29.80;;;20.30;99.90;;;;;;5033404;28;20242;-81
2022/07/21 05:12:44;;;;;;;30.63;27.52;;;20.30;99.90;;;;;;5033796;28;20187;-81
2022/07/21 05:15:12;;;;;;;28.67;25.58;;;20.30;99.90;;;;;;5034953;28;20199;-82
2022/07/21 05:17:39;;;;;;;27.60;24.65;;;20.30;99.90;;;;;;5033707;28;20855;-79
2022/07/21 05:20:10;;;;;;;29.13;26.02;;;20.30;99.90;;;;;;5033742;28;20226;-80
2022/07/21 05:22:36;;;;;;;27.98;24.88;;;20.30;99.90;;;;;;5033735;28;20201;-81
2022/07/21 05:25:04;;;;;;;25.73;23.05;;;20.30;99.90;;;;;;5033325;28;20213;-81
2022/07/21 05:27:31;;;;;;;28.98;25.50;;;20.30;99.90;;;;;;5033086;28;20207;-79
2022/07/21 05:29:58;;;;;;;33.45;28.52;;;20.20;99.90;;;;;;5032645;28;20202;-82
2022/07/21 05:32:25;;;;;;;30.33;26.83;;;20.20;99.90;;;;;;5033329;28;20207;-82
2022/07/21 05:34:52;;;;;;;33.35;28.60;;;20.20;99.90;;;;;;5033139;28;20286;-83
2022/07/21 05:37:20;;;;;;;31.58;22.73;;;20.30;99.90;;;;;;5029954;28;20260;-82
2022/07/21 05:39:47;;;;;;;32.20;25.13;;;20.20;99.90;;;;;;5033395;28;20234;-79
2022/07/21 05:42:14;;;;;;;27.50;22.92;;;20.20;99.90;;;;;;5033586;28;20719;-82
2022/07/21 05:44:41;;;;;;;30.33;21.02;;;20.10;99.90;;;;;;5026631;28;20626;-79
2022/07/21 05:47:08;;;;;;;29.02;21.35;;;20.00;99.90;;;;;;5029179;28;20210;-79
2022/07/21 05:49:34;;;;;;;27.13;22.55;;;20.00;99.90;;;;;;5033485;28;20267;-78
2022/07/21 05:52:01;;;;;;;27.70;21.60;;;19.90;99.90;;;;;;5032509;28;20213;-76
2022/07/21 05:54:29;;;;;;;25.23;19.50;;;19.90;99.90;;;;;;5031570;28;20217;-77
2022/07/21 05:56:58;;;;;;;31.88;22.63;;;19.90;99.90;;;;;;5032700;28;20213;-79
2022/07/21 05:59:24;;;;;;;37.13;24.55;;;19.90;99.90;;;;;;5032435;28;20202;-78
2022/07/21 06:01:51;;;;;;;32.03;23.33;;;19.90;99.90;;;;;;5031316;28;20210;-77
2022/07/21 06:04:18;;;;;;;36.67;25.33;;;19.90;99.90;;;;;;5032325;28;20281;-79
2022/07/21 06:06:46;;;;;;;24.48;19.90;;;19.90;99.90;;;;;;5031631;28;20484;-78
2022/07/21 06:09:13;;;;;;;31.73;22.45;;;19.80;99.90;;;;;;5031673;28;20763;-77
2022/07/21 06:11:41;;;;;;;36.00;24.88;;;19.80;99.90;;;;;;5032693;28;20198;-78
2022/07/21 06:14:08;;;;;;;38.53;27.00;;;19.80;99.90;;;;;;5031958;28;20293;-79
2022/07/21 06:16:35;;;;;;;31.73;23.92;;;19.70;99.90;;;;;;5031655;28;20217;-79
2022/07/21 06:19:02;;;;;;;35.28;23.33;;;19.70;99.90;;;;;;5032218;28;20198;-79
2022/07/21 06:21:29;;;;;;;28.80;22.85;;;19.70;99.90;;;;;;5031525;28;20329;-78
2022/07/21 06:23:56;;;;;;;27.48;21.13;;;19.70;99.90;;;;;;5030903;28;20206;-80
2022/07/21 06:26:23;;;;;;;26.45;22.55;;;19.60;99.90;;;;;;5032384;28;20226;-80
2022/07/21 06:28:51;;;;;;;30.20;22.85;;;19.70;99.90;;;;;;5031776;28;20206;-81
2022/07/21 06:31:18;;;;;;;31.85;22.00;;;19.70;99.90;;;;;;5032240;28;20284;-78
2022/07/21 06:33:45;;;;;;;30.80;22.25;;;19.70;99.90;;;;;;5023326;28;20221;-80
2022/07/21 06:36:12;;;;;;;29.98;22.45;;;19.60;99.90;;;;;;5014921;28;20205;-81
2022/07/21 06:38:39;;;;;;;28.08;21.20;;;19.60;99.90;;;;;;5031881;28;20222;-79
2022/07/21 06:41:06;;;;;;;28.85;21.27;;;19.60;99.90;;;;;;5032040;28;20535;-79
2022/07/21 06:43:33;;;;;;;25.38;19.88;;;19.60;99.90;;;;;;5031292;28;20226;-79
2022/07/21 06:46:01;;;;;;;34.85;23.30;;;19.60;99.90;;;;;;5031173;28;20210;-79
2022/07/21 06:48:28;;;;;;;33.25;24.92;;;19.60;99.90;;;;;;5032312;28;20228;-84
2022/07/21 06:50:56;;;;;;;26.35;20.20;;;19.60;99.90;;;;;;5034028;28;20199;-86
2022/07/21 06:53:23;;;;;;;26.73;19.45;;;19.50;99.90;;;;;;5033064;28;20206;-85
2022/07/21 06:55:52;;;;;;;27.65;21.42;;;19.50;99.90;;;;;;5013944;28;20225;-85
2022/07/21 06:58:20;;;;;;;26.67;19.55;;;19.40;99.90;;;;;;5025808;28;20206;-85
2022/07/21 07:00:49;;;;;;;24.65;19.20;;;19.40;99.90;;;;;;5033887;28;20257;-85
2022/07/21 07:03:19;;;;;;;24.75;17.25;;;19.40;99.90;;;;;;5033520;28;20194;-85
2022/07/21 07:05:47;;;;;;;25.63;19.48;;;19.40;99.90;;;;;;5033465;28;20270;-86
2022/07/21 07:08:15;;;;;;;20.55;16.48;;;19.40;99.90;;;;;;5033143;28;20202;-84
2022/07/21 07:10:42;;;;;;;23.27;17.73;;;19.30;99.90;;;;;;5033125;28;20306;-86
2022/07/21 07:13:10;;;;;;;21.83;16.58;;;19.30;99.90;;;;;;5033037;28;20209;-86
2022/07/21 07:15:37;;;;;;;20.42;16.33;;;19.40;99.90;;;;;;5034146;28;20211;-86
2022/07/21 07:18:03;;;;;;;18.90;16.60;;;19.40;99.90;;;;;;5033349;28;20583;-85
2022/07/21 07:20:32;;;;;;;20.48;14.95;;;19.30;99.90;;;;;;5026946;28;20219;-85
2022/07/21 07:22:59;;;;;;;21.73;16.90;;;19.30;99.90;;;;;;5014138;28;20207;-86
2022/07/21 07:25:25;;;;;;;22.90;14.52;;;19.30;99.90;;;;;;5028989;28;20209;-84
2022/07/21 07:27:54;;;;;;;19.05;15.70;;;19.30;99.90;;;;;;5032687;28;20751;-87
2022/07/21 07:30:21;;;;;;;21.02;16.52;;;19.30;99.90;;;;;;5032407;28;20206;-87
2022/07/21 07:32:48;;;;;;;24.10;16.98;;;19.30;99.90;;;;;;5033079;28;20762;-87
2022/07/21 07:35:16;;;;;;;22.98;15.10;;;19.30;99.90;;;;;;5034410;28;20214;-93
2022/07/21 07:37:47;;;;;;;22.05;15.77;;;19.40;99.90;;;;;;5021402;28;20262;-89
2022/07/21 07:40:16;;;;;;;18.23;15.45;;;19.40;99.90;;;;;;5014330;28;20281;-89
2022/07/21 07:42:44;;;;;;;16.83;13.77;;;19.40;99.90;;;;;;5023483;23;20785;-89
2022/07/21 07:45:12;;;;;;;15.13;13.13;;;19.40;99.90;;;;;;5033983;28;20285;-87
2022/07/21 07:47:40;;;;;;;18.13;15.10;;;19.40;99.90;;;;;;5031096;28;20238;-87
2022/07/21 07:50:09;;;;;;;21.20;15.98;;;19.40;99.90;;;;;;5037615;22;20246;-87
2022/07/21 07:52:36;;;;;;;18.52;14.70;;;19.40;99.90;;;;;;5030112;28;20211;-86
2022/07/21 07:55:07;;;;;;;16.83;13.05;;;19.40;99.90;;;;;;5031156;28;20289;-84
2022/07/21 07:57:35;;;;;;;16.30;12.45;;;19.30;99.90;;;;;;5019689;28;20203;-87
2022/07/21 08:00:02;;;;;;;14.18;11.95;;;19.30;99.90;;;;;;5024066;28;20898;-80
2022/07/21 08:02:29;;;;;;;15.90;12.30;;;19.30;99.90;;;;;;5026710;28;20724;-81
2022/07/21 08:04:56;;;;;;;16.38;14.57;;;19.20;99.90;;;;;;5029971;28;20206;-81
2022/07/21 08:07:22;;;;;;;15.52;13.77;;;19.20;99.90;;;;;;5023446;28;20202;-81
2022/07/21 08:09:49;;;;;;;14.30;12.07;;;19.20;99.90;;;;;;5034992;28;20198;-81
2022/07/21 08:12:17;;;;;;;17.90;13.65;;;19.20;99.90;;;;;;5020218;28;20210;-82
2022/07/21 08:14:44;;;;;;;9.75;8.75;;;19.10;99.90;;;;;;5023399;28;20206;-80
2022/07/21 08:17:11;;;;;;;10.32;8.70;;;19.10;99.90;;;;;;5032520;28;20203;-80
2022/07/21 08:19:39;;;;;;;5.72;4.50;;;19.10;99.90;;;;;;5026057;28;20220;-82
2022/07/21 08:22:05;;;;;;;11.30;6.20;;;19.20;99.90;;;;;;5024651;28;20233;-83
2022/07/21 08:24:32;;;;;;;12.02;6.65;;;19.10;99.90;;;;;;5034886;28;20194;-81
2022/07/21 08:26:59;;;;;;;11.32;7.72;;;19.00;99.90;;;;;;5028576;28;20234;-82
2022/07/21 08:29:27;;;;;;;9.88;6.95;;;19.00;99.90;;;;;;5015465;28;20206;-81
2022/07/21 08:31:54;;;;;;;14.13;8.43;;;19.00;99.90;;;;;;5015386;28;20207;-81
2022/07/21 08:34:21;;;;;;;11.80;7.88;;;19.00;99.90;;;;;;5015034;28;20239;-82
2022/07/21 08:36:48;;;;;;;8.57;7.63;;;19.00;99.90;;;;;;5023748;28;20237;-83
2022/07/21 08:39:15;;;;;;;13.52;8.27;;;18.90;99.90;;;;;;5033323;28;20232;-83
2022/07/21 08:41:42;;;;;;;10.77;7.90;;;18.90;99.90;;;;;;5025516;28;20247;-83
2022/07/21 08:44:10;;;;;;;10.90;8.07;;;18.90;99.90;;;;;;5014708;28;20226;-82
2022/07/21 08:46:42;;;;;;;11.23;8.23;;;18.90;99.90;;;;;;5001140;28;20281;-81
2022/07/21 08:49:10;;;;;;;12.35;8.98;;;19.00;99.90;;;;;;4995299;28;20204;-83
2022/07/21 08:51:38;;;;;;;9.52;8.05;;;19.00;99.90;;;;;;4995497;28;20231;-86
2022/07/21 08:54:05;;;;;;;12.50;9.70;;;19.00;99.90;;;;;;5004831;28;20207;-81
2022/07/21 08:56:32;;;;;;;11.23;9.10;;;19.00;99.90;;;;;;5012267;28;20595;-81
2022/07/21 08:58:59;;;;;;;14.68;9.25;;;19.00;99.90;;;;;;5013757;28;20427;-81
2022/07/21 09:01:26;;;;;;;9.07;7.45;;;19.00;99.90;;;;;;5013861;28;20226;-83
2022/07/21 09:03:55;;;;;;;10.25;8.48;;;19.00;99.90;;;;;;5012717;28;20213;-82
2022/07/21 09:06:22;;;;;;;10.10;8.88;;;19.00;99.90;;;;;;5013899;28;20207;-82
2022/07/21 09:08:54;;;;;;;10.02;7.90;;;19.00;99.90;;;;;;5011931;28;20203;-85
2022/07/21 09:11:27;;;;;;;12.68;9.05;;;19.00;99.90;;;;;;5013651;28;20257;-82
2022/07/21 09:14:07;;;;;;;11.10;7.90;;;19.00;99.90;;;;;;4995914;28;20199;-85
2022/07/21 09:16:36;;;;;;;12.25;8.02;;;19.10;99.90;;;;;;5008088;28;20354;-86
2022/07/21 09:19:05;;;;;;;10.82;8.00;;;19.10;99.90;;;;;;5013013;28;20210;-85
2022/07/21 09:21:33;;;;;;;11.27;7.80;;;19.10;99.90;;;;;;5015386;28;20221;-82
2022/07/21 09:24:29;;;;;;;12.32;8.25;;;19.10;99.90;;;;;;5004331;28;20199;-80
2022/07/21 09:27:06;;;;;;;7.75;7.00;;;19.10;99.90;;;;;;5015405;28;20302;-86
2022/07/21 09:29:46;;;;;;;8.70;7.32;;;19.10;99.90;;;;;;5015084;28;20205;-85
2022/07/21 09:32:19;;;;;;;9.25;8.18;;;19.10;99.90;;;;;;5011159;28;20204;-81
2022/07/21 09:34:49;;;;;;;9.70;8.70;;;19.10;99.90;;;;;;5013059;28;20199;-81
2022/07/21 09:37:16;;;;;;;14.55;9.95;;;19.10;99.90;;;;;;5006669;28;20236;-79
2022/07/21 09:39:45;;;;;;;9.23;8.32;;;19.20;99.90;;;;;;4998810;28;20199;-78
2022/07/21 09:42:17;;;;;;;8.57;7.50;;;19.20;99.90;;;;;;5013383;28;20262;-83
2022/07/21 09:44:45;;;;;;;7.60;6.40;;;19.20;99.90;;;;;;5011788;28;20207;-81
2022/07/21 09:47:14;;;;;;;6.68;5.97;;;19.20;99.90;;;;;;5014215;28;20282;-84
2022/07/21 09:49:42;;;;;;;6.78;5.15;;;19.30;99.90;;;;;;5013897;28;20206;-85
2022/07/21 09:52:29;;;;;;;6.72;5.07;;;19.30;99.90;;;;;;5013293;28;20198;-81
2022/07/21 09:54:57;;;;;;;6.38;4.72;;;19.30;99.90;;;;;;5013675;28;20191;-79
2022/07/21 09:57:24;;;;;;;6.50;5.50;;;19.40;99.90;;;;;;5012114;28;20552;-83
2022/07/21 09:59:52;;;;;;;5.93;5.15;;;19.40;99.90;;;;;;5009056;28;20230;-82
2022/07/21 10:02:21;;;;;;;7.05;5.35;;;19.40;99.90;;;;;;4994881;28;20232;-85
2022/07/21 10:04:55;;;;;;;7.88;5.32;;;19.40;99.90;;;;;;4997043;28;20211;-88
2022/07/21 10:07:23;;;;;;;5.80;5.20;;;19.40;99.90;;;;;;5014572;28;20188;-83
2022/07/21 10:09:51;;;;;;;7.28;5.82;;;19.40;99.90;;;;;;5014709;28;20203;-88
2022/07/21 10:12:18;;;;;;;7.10;5.80;;;19.40;99.90;;;;;;5015148;28;20517;-90
2022/07/21 10:14:46;;;;;;;7.25;5.60;;;19.30;99.90;;;;;;5012901;28;20341;-89
2022/07/21 10:17:15;;;;;;;6.88;5.53;;;19.40;99.90;;;;;;5014214;28;20211;-87
2022/07/21 10:19:54;;;;;;;8.90;6.20;;;19.30;99.90;;;;;;5014303;28;20195;-86
2022/07/21 10:22:29;;;;;;;8.77;5.95;;;19.40;99.90;;;;;;5014548;28;20211;-87
2022/07/21 10:24:56;;;;;;;7.80;6.28;;;19.40;99.90;;;;;;5014628;28;20536;-86
2022/07/21 10:27:23;;;;;;;6.13;5.40;;;19.50;99.90;;;;;;5014343;28;20629;-87
2022/07/21 10:29:55;;;;;;;6.05;5.28;;;19.50;99.90;;;;;;5014721;28;20207;-85
2022/07/21 10:32:24;;;;;;;8.32;5.60;;;19.50;99.90;;;;;;5013931;28;20199;-87
2022/07/21 10:34:51;;;;;;;7.10;5.32;;;19.50;99.90;;;;;;5014299;28;20604;-84
2022/07/21 10:37:46;;;;;;;7.85;5.22;;;19.60;99.90;;;;;;5007449;28;20210;-82
2022/07/21 10:40:36;;;;;;;6.13;4.50;;;19.60;99.90;;;;;;4993828;28;20204;-83
2022/07/21 10:43:40;;;;;;;4.30;3.80;;;19.60;99.90;;;;;;4993278;28;20202;-83
2022/07/21 10:46:36;;;;;;;4.82;3.65;;;19.60;99.90;;;;;;4981419;28;20242;-84
2022/07/21 10:49:05;;;;;;;5.13;3.22;;;19.60;99.90;;;;;;4992885;28;20199;-83
2022/07/21 10:51:35;;;;;;;5.28;3.35;;;19.60;99.90;;;;;;4992971;28;20251;-86
2022/07/21 10:54:23;;;;;;;3.30;3.00;;;19.60;99.90;;;;;;4994609;28;20652;-87
2022/07/21 10:57:27;;;;;;;3.75;2.95;;;19.60;99.90;;;;;;4994233;28;20196;-86
2022/07/21 11:00:20;;;;;;;3.78;2.67;;;19.60;99.90;;;;;;4993158;28;20495;-82
2022/07/21 11:02:52;;;;;;;5.00;2.85;;;19.60;99.90;;;;;;4991700;28;20691;-79
2022/07/21 11:05:19;;;;;;;3.42;3.10;;;19.60;99.90;;;;;;4993278;28;20239;-81
2022/07/21 11:08:17;;;;;;;5.22;3.28;;;19.60;99.90;;;;;;5008150;28;20215;-79
2022/07/21 11:10:48;;;;;;;3.83;3.53;;;19.70;99.90;;;;;;4943796;29;20194;-78
2022/07/21 11:13:16;;;;;;;5.38;4.78;;;19.70;99.90;;;;;;4980417;28;20211;-79
2022/07/21 11:16:04;;;;;;;5.78;4.32;;;19.70;99.90;;;;;;5008767;28;20211;-79
2022/07/21 11:18:32;;;;;;;8.02;4.90;;;19.70;99.90;;;;;;5006512;28;20199;-78
2022/07/21 11:21:09;;;;;;;8.43;5.80;;;19.80;99.90;;;;;;5011907;28;20195;-78
2022/07/21 11:23:37;;;;;;;5.70;5.15;;;19.80;99.90;;;;;;5012038;28;20231;-80
2022/07/21 11:26:06;;;;;;;8.63;5.72;;;19.80;99.90;;;;;;5012196;28;20283;-78
2022/07/21 11:28:33;;;;;;;8.20;5.40;;;19.80;99.90;;;;;;5012278;28;20195;-79
2022/07/21 11:31:11;;;;;;;6.55;5.35;;;19.80;99.90;;;;;;5007134;28;20466;-80
2022/07/21 11:33:39;;;;;;;5.50;5.00;;;19.80;99.90;;;;;;4995613;28;20206;-81
2022/07/21 11:36:07;;;;;;;9.50;6.05;;;19.70;99.90;;;;;;4996494;28;20200;-81
2022/07/21 11:38:34;;;;;;;8.00;5.57;;;19.70;99.90;;;;;;4995373;28;20196;-86
2022/07/21 11:41:19;;;;;;;8.02;5.43;;;19.70;99.90;;;;;;4996112;28;20242;-82
2022/07/21 11:43:47;;;;;;;6.15;5.18;;;19.70;99.90;;;;;;4996573;28;20203;-83
2022/07/21 11:46:14;;;;;;;5.97;4.70;;;19.70;99.90;;;;;;4995517;28;20227;-81
2022/07/21 11:48:41;;;;;;;7.53;6.45;;;19.60;99.90;;;;;;4998491;28;20204;-85
2022/07/21 11:51:08;;;;;;;6.55;5.05;;;19.60;99.90;;;;;;5017237;28;20322;-85
2022/07/21 11:53:36;;;;;;;7.07;5.38;;;19.60;99.90;;;;;;5017565;28;20235;-86
2022/07/21 11:56:13;;;;;;;6.47;5.88;;;19.50;99.90;;;;;;5017257;28;20195;-87
2022/07/21 11:58:41;;;;;;;6.30;5.70;;;19.60;99.90;;;;;;5017205;28;20198;-81
2022/07/21 12:01:09;;;;;;;8.52;5.85;;;19.60;99.90;;;;;;4997159;28;20303;-82
2022/07/21 12:03:46;;;;;;;5.80;4.63;;;19.60;99.90;;;;;;4997769;28;20699;-87
2022/07/21 12:06:14;;;;;;;7.30;5.97;;;19.60;99.90;;;;;;4997235;28;20746;-79
2022/07/21 12:08:42;;;;;;;6.68;5.95;;;19.60;99.90;;;;;;5016548;28;20207;-86
2022/07/21 12:11:12;;;;;;;7.75;5.85;;;19.60;99.90;;;;;;5016495;28;20207;-83
2022/07/21 12:13:54;;;;;;;9.40;6.30;;;19.60;99.90;;;;;;5000491;28;20232;-81
2022/07/21 12:16:21;;;;;;;7.25;6.22;;;19.80;99.90;;;;;;4996739;28;20267;-84
2022/07/21 12:18:48;;;;;;;8.15;5.60;;;19.80;99.90;;;;;;5005747;28;20234;-86
2022/07/21 12:21:15;;;;;;;7.65;5.15;;;19.90;99.90;;;;;;5015071;28;20858;-82
2022/07/21 12:23:42;;;;;;;6.70;5.20;;;20.00;99.90;;;;;;5015847;28;20218;-79
2022/07/21 12:26:22;;;;;;;9.25;5.68;;;20.00;99.90;;;;;;5005381;28;20204;-80
2022/07/21 12:28:52;;;;;;;8.38;6.38;;;20.10;99.90;;;;;;4995014;28;20222;-88
2022/07/21 12:31:21;;;;;;;10.32;7.28;;;20.10;99.90;;;;;;4996392;28;20610;-81
2022/07/21 12:33:49;;;;;;;10.63;7.40;;;20.20;99.90;;;;;;4996610;28;20593;-88
2022/07/21 12:36:16;;;;;;;8.88;7.20;;;20.20;99.90;;;;;;5014885;28;20207;-84
2022/07/21 12:38:44;;;;;;;9.90;7.88;;;20.30;99.90;;;;;;5016194;28;20611;-89
2022/07/21 12:41:13;;;;;;;7.80;6.97;;;20.30;99.90;;;;;;5015178;28;20234;-91
2022/07/21 12:43:40;;;;;;;7.18;6.50;;;20.30;99.90;;;;;;5015625;28;20199;-87